الصفحة الرئيسية
METAR-TAF:

METAR-TAF

مطار :

جزيرة كريسماس, أستراليا

دائرة عرض: 10-26S, خط طول: 105-41E, ارتفاع: 279 متر

مراقبة الطقس الحالي

تاريخ ووقت الإصدار 39 دقيقة قبل الساعة 23:00UTC
ريح 10 عقدة من الشرق
درجة الحرارة 26°درجة مئوية
الرطوبة 79%
ضغط 1014 hPa
الرؤية 10 كم أو أكثر
غيوم مفككة على ارتفاع 1600 قدم
غيوم مفككة على ارتفاع 2000 قدم
ملبد بالغيوم على ارتفاع 8400 قدم

METAR: YPXM 162300Z AUTO 09010KT 9999 // BKN016 BKN020 OVC084 26/22 Q1014

زمن: 06:39 (23:39 UTC)

توقعات

تاريخ ووقت الإصدار 6ساعات و 38 دقيقة قبل الساعة 17:01UTC
التوقعات صالحة من16 الساعة 18 UTC إلى 17 الساعة 18 UTC
ريح 9 عقدة من الشرق/الجنوب الشرقي
الرؤية 10 كم أو أكثر
غيوم مفككة على ارتفاع 1100 قدم

TAF: YPXM 161701Z 1618/1718 12009KT 9999 BKN011

أرصاد الطقس والتوقعات من أكثر من 4000 مطار (تقارير الطقس للمطار METAR والتنبؤ بالطقس بالمطارTAF).

المحطات المتاحة هي النقط الصفراء والحمراء على الخريطة.

حرك المؤشر فوق النقطة لمعرفة اسم المحطة.

ثم انقر لمعرفة أرصاد وتوقعات الطقس.

لتغيير الخارطة: اضغط على الأزرار الخضراء مع رمز الصليب الأسود للتكبير. على الزر الأخضر مع شرطة للتصغير، أو على الأسهم الخضراء للخرائط المجاورة.


METAR-TAF: